sensor_id;sensor_type;location;lat;lon;timestamp;temperature;humidity
60039;DHT22;45916;52.734;6.544;2023-03-03T00:00:49;1.50;99.90
60039;DHT22;45916;52.734;6.544;2023-03-03T00:03:18;1.50;99.90
60039;DHT22;45916;52.734;6.544;2023-03-03T00:05:44;1.60;99.90
60039;DHT22;45916;52.734;6.544;2023-03-03T00:08:10;1.50;99.90
60039;DHT22;45916;52.734;6.544;2023-03-03T00:10:37;1.60;99.90
60039;DHT22;45916;52.734;6.544;2023-03-03T00:13:03;1.60;99.90
60039;DHT22;45916;52.734;6.544;2023-03-03T00:15:29;1.60;99.90
60039;DHT22;45916;52.734;6.544;2023-03-03T00:17:55;1.60;99.90
60039;DHT22;45916;52.734;6.544;2023-03-03T00:20:35;1.60;99.90
60039;DHT22;45916;52.734;6.544;2023-03-03T00:23:30;1.60;99.90
60039;DHT22;45916;52.734;6.544;2023-03-03T00:25:59;1.60;99.90
60039;DHT22;45916;52.734;6.544;2023-03-03T00:28:31;1.60;99.90
60039;DHT22;45916;52.734;6.544;2023-03-03T00:31:01;1.60;99.90
60039;DHT22;45916;52.734;6.544;2023-03-03T00:33:29;1.70;99.90
60039;DHT22;45916;52.734;6.544;2023-03-03T00:38:39;1.60;99.90
60039;DHT22;45916;52.734;6.544;2023-03-03T00:41:22;1.60;99.90
60039;DHT22;45916;52.734;6.544;2023-03-03T00:43:49;1.60;99.90
60039;DHT22;45916;52.734;6.544;2023-03-03T00:46:20;1.60;99.90
60039;DHT22;45916;52.734;6.544;2023-03-03T00:48:47;1.60;99.90
60039;DHT22;45916;52.734;6.544;2023-03-03T00:53:41;1.70;99.90
60039;DHT22;45916;52.734;6.544;2023-03-03T00:56:07;1.60;99.90
60039;DHT22;45916;52.734;6.544;2023-03-03T00:58:32;1.60;99.90
60039;DHT22;45916;52.734;6.544;2023-03-03T01:00:58;1.60;99.90
60039;DHT22;45916;52.734;6.544;2023-03-03T01:03:25;1.50;99.90
60039;DHT22;45916;52.734;6.544;2023-03-03T01:05:52;1.50;99.90
60039;DHT22;45916;52.734;6.544;2023-03-03T01:08:18;1.50;99.90
60039;DHT22;45916;52.734;6.544;2023-03-03T01:10:49;1.40;99.90
60039;DHT22;45916;52.734;6.544;2023-03-03T01:13:16;1.40;99.90
60039;DHT22;45916;52.734;6.544;2023-03-03T01:15:43;1.40;99.90
60039;DHT22;45916;52.734;6.544;2023-03-03T01:18:10;1.40;99.90
60039;DHT22;45916;52.734;6.544;2023-03-03T01:20:36;1.40;99.90
60039;DHT22;45916;52.734;6.544;2023-03-03T01:23:02;1.40;99.90
60039;DHT22;45916;52.734;6.544;2023-03-03T01:25:28;1.30;99.90
60039;DHT22;45916;52.734;6.544;2023-03-03T01:27:54;1.40;99.90
60039;DHT22;45916;52.734;6.544;2023-03-03T01:30:20;1.40;99.90
60039;DHT22;45916;52.734;6.544;2023-03-03T01:32:45;1.40;99.90
60039;DHT22;45916;52.734;6.544;2023-03-03T01:35:12;1.40;99.90
60039;DHT22;45916;52.734;6.544;2023-03-03T01:37:37;1.50;99.90
60039;DHT22;45916;52.734;6.544;2023-03-03T01:40:06;1.40;99.90
60039;DHT22;45916;52.734;6.544;2023-03-03T01:42:32;1.40;99.90
60039;DHT22;45916;52.734;6.544;2023-03-03T01:45:25;1.50;99.90
60039;DHT22;45916;52.734;6.544;2023-03-03T01:48:13;1.40;99.90
60039;DHT22;45916;52.734;6.544;2023-03-03T01:53:42;1.40;99.90
60039;DHT22;45916;52.734;6.544;2023-03-03T01:56:09;1.40;99.90
60039;DHT22;45916;52.734;6.544;2023-03-03T01:58:40;1.40;99.90
60039;DHT22;45916;52.734;6.544;2023-03-03T02:01:11;1.40;99.90
60039;DHT22;45916;52.734;6.544;2023-03-03T02:03:39;1.40;99.90
60039;DHT22;45916;52.734;6.544;2023-03-03T02:06:12;1.40;99.90
60039;DHT22;45916;52.734;6.544;2023-03-03T02:11:10;1.40;99.90
60039;DHT22;45916;52.734;6.544;2023-03-03T02:13:36;1.50;99.90
60039;DHT22;45916;52.734;6.544;2023-03-03T02:16:02;1.50;99.90
60039;DHT22;45916;52.734;6.544;2023-03-03T02:18:28;1.50;99.90
60039;DHT22;45916;52.734;6.544;2023-03-03T02:21:09;1.50;99.90
60039;DHT22;45916;52.734;6.544;2023-03-03T02:26:32;1.50;99.90
60039;DHT22;45916;52.734;6.544;2023-03-03T02:28:58;1.50;99.90
60039;DHT22;45916;52.734;6.544;2023-03-03T02:31:26;1.50;99.90
60039;DHT22;45916;52.734;6.544;2023-03-03T02:33:53;1.50;99.90
60039;DHT22;45916;52.734;6.544;2023-03-03T02:36:27;1.50;99.90
60039;DHT22;45916;52.734;6.544;2023-03-03T02:39:13;1.50;99.90
60039;DHT22;45916;52.734;6.544;2023-03-03T02:41:57;1.50;99.90
60039;DHT22;45916;52.734;6.544;2023-03-03T02:44:26;1.60;99.90
60039;DHT22;45916;52.734;6.544;2023-03-03T02:46:54;1.60;99.90
60039;DHT22;45916;52.734;6.544;2023-03-03T02:49:25;1.60;99.90
60039;DHT22;45916;52.734;6.544;2023-03-03T02:51:52;1.60;99.90
60039;DHT22;45916;52.734;6.544;2023-03-03T02:54:21;1.60;99.90
60039;DHT22;45916;52.734;6.544;2023-03-03T02:56:47;1.60;99.90
60039;DHT22;45916;52.734;6.544;2023-03-03T02:59:13;1.60;99.90
60039;DHT22;45916;52.734;6.544;2023-03-03T03:01:39;1.60;99.90
60039;DHT22;45916;52.734;6.544;2023-03-03T03:04:09;1.60;99.90
60039;DHT22;45916;52.734;6.544;2023-03-03T03:06:36;1.70;99.90
60039;DHT22;45916;52.734;6.544;2023-03-03T03:09:03;1.70;99.90
60039;DHT22;45916;52.734;6.544;2023-03-03T03:11:29;1.70;99.90
60039;DHT22;45916;52.734;6.544;2023-03-03T03:13:54;1.70;99.90
60039;DHT22;45916;52.734;6.544;2023-03-03T03:16:20;1.70;99.90
60039;DHT22;45916;52.734;6.544;2023-03-03T03:18:46;1.80;99.90
60039;DHT22;45916;52.734;6.544;2023-03-03T03:21:12;1.70;99.90
60039;DHT22;45916;52.734;6.544;2023-03-03T03:23:38;1.80;99.90
60039;DHT22;45916;52.734;6.544;2023-03-03T03:26:05;1.80;99.90
60039;DHT22;45916;52.734;6.544;2023-03-03T03:28:31;1.80;99.90
60039;DHT22;45916;52.734;6.544;2023-03-03T03:30:57;1.80;99.90
60039;DHT22;45916;52.734;6.544;2023-03-03T03:33:23;1.80;99.90
60039;DHT22;45916;52.734;6.544;2023-03-03T03:35:49;1.90;99.90
60039;DHT22;45916;52.734;6.544;2023-03-03T03:38:15;1.90;99.90
60039;DHT22;45916;52.734;6.544;2023-03-03T03:40:42;2.00;99.90
60039;DHT22;45916;52.734;6.544;2023-03-03T03:43:07;1.90;99.90
60039;DHT22;45916;52.734;6.544;2023-03-03T03:45:33;1.90;99.90
60039;DHT22;45916;52.734;6.544;2023-03-03T03:47:59;1.90;99.90
60039;DHT22;45916;52.734;6.544;2023-03-03T03:50:25;1.90;99.90
60039;DHT22;45916;52.734;6.544;2023-03-03T03:52:50;1.90;99.90
60039;DHT22;45916;52.734;6.544;2023-03-03T03:55:16;2.00;99.90
60039;DHT22;45916;52.734;6.544;2023-03-03T03:57:42;2.00;99.90
60039;DHT22;45916;52.734;6.544;2023-03-03T04:00:09;2.00;99.90
60039;DHT22;45916;52.734;6.544;2023-03-03T04:02:36;2.00;99.90
60039;DHT22;45916;52.734;6.544;2023-03-03T04:05:03;2.00;99.90
60039;DHT22;45916;52.734;6.544;2023-03-03T04:07:29;2.00;99.90
60039;DHT22;45916;52.734;6.544;2023-03-03T04:09:55;2.00;99.90
60039;DHT22;45916;52.734;6.544;2023-03-03T04:12:20;2.00;99.90
60039;DHT22;45916;52.734;6.544;2023-03-03T04:14:46;2.00;99.90
60039;DHT22;45916;52.734;6.544;2023-03-03T04:17:16;2.00;99.90
60039;DHT22;45916;52.734;6.544;2023-03-03T04:19:42;2.10;99.90
60039;DHT22;45916;52.734;6.544;2023-03-03T04:22:07;2.10;99.90
60039;DHT22;45916;52.734;6.544;2023-03-03T04:24:33;2.20;99.90
60039;DHT22;45916;52.734;6.544;2023-03-03T04:27:00;2.10;99.90
60039;DHT22;45916;52.734;6.544;2023-03-03T04:29:25;2.10;99.90
60039;DHT22;45916;52.734;6.544;2023-03-03T04:31:51;2.20;99.90
60039;DHT22;45916;52.734;6.544;2023-03-03T04:34:16;2.10;99.90
60039;DHT22;45916;52.734;6.544;2023-03-03T04:36:42;2.00;99.90
60039;DHT22;45916;52.734;6.544;2023-03-03T04:39:08;2.00;99.90
60039;DHT22;45916;52.734;6.544;2023-03-03T04:41:33;2.00;99.90
60039;DHT22;45916;52.734;6.544;2023-03-03T04:43:59;2.00;99.90
60039;DHT22;45916;52.734;6.544;2023-03-03T04:46:25;2.10;99.90
60039;DHT22;45916;52.734;6.544;2023-03-03T04:48:51;2.00;99.90
60039;DHT22;45916;52.734;6.544;2023-03-03T04:51:17;2.10;99.90
60039;DHT22;45916;52.734;6.544;2023-03-03T04:53:43;2.20;99.90
60039;DHT22;45916;52.734;6.544;2023-03-03T04:56:09;2.00;99.90
60039;DHT22;45916;52.734;6.544;2023-03-03T04:58:34;2.00;99.90
60039;DHT22;45916;52.734;6.544;2023-03-03T05:01:00;2.10;99.90
60039;DHT22;45916;52.734;6.544;2023-03-03T05:03:26;2.10;99.90
60039;DHT22;45916;52.734;6.544;2023-03-03T05:05:52;2.10;99.90
60039;DHT22;45916;52.734;6.544;2023-03-03T05:08:17;2.10;99.90
60039;DHT22;45916;52.734;6.544;2023-03-03T05:10:43;2.10;99.90
60039;DHT22;45916;52.734;6.544;2023-03-03T05:13:09;2.10;99.90
60039;DHT22;45916;52.734;6.544;2023-03-03T05:15:35;2.10;99.90
60039;DHT22;45916;52.734;6.544;2023-03-03T05:18:01;2.10;99.90
60039;DHT22;45916;52.734;6.544;2023-03-03T05:20:27;2.10;99.90
60039;DHT22;45916;52.734;6.544;2023-03-03T05:22:52;2.10;99.90
60039;DHT22;45916;52.734;6.544;2023-03-03T05:25:20;2.10;99.90
60039;DHT22;45916;52.734;6.544;2023-03-03T05:27:46;2.10;99.90
60039;DHT22;45916;52.734;6.544;2023-03-03T05:30:12;2.10;99.90
60039;DHT22;45916;52.734;6.544;2023-03-03T05:32:37;2.10;99.90
60039;DHT22;45916;52.734;6.544;2023-03-03T05:35:04;2.10;99.90
60039;DHT22;45916;52.734;6.544;2023-03-03T05:37:30;2.10;99.90
60039;DHT22;45916;52.734;6.544;2023-03-03T05:39:55;2.10;99.90
60039;DHT22;45916;52.734;6.544;2023-03-03T05:42:21;2.10;99.90
60039;DHT22;45916;52.734;6.544;2023-03-03T05:44:47;2.10;99.90
60039;DHT22;45916;52.734;6.544;2023-03-03T05:47:12;2.20;99.90
60039;DHT22;45916;52.734;6.544;2023-03-03T05:49:38;2.20;99.90
60039;DHT22;45916;52.734;6.544;2023-03-03T05:52:04;2.10;99.90
60039;DHT22;45916;52.734;6.544;2023-03-03T05:54:29;2.10;99.90
60039;DHT22;45916;52.734;6.544;2023-03-03T05:56:55;2.10;99.90
60039;DHT22;45916;52.734;6.544;2023-03-03T05:59:22;2.10;99.90
60039;DHT22;45916;52.734;6.544;2023-03-03T06:01:48;2.20;99.90
60039;DHT22;45916;52.734;6.544;2023-03-03T06:04:14;2.20;99.90
60039;DHT22;45916;52.734;6.544;2023-03-03T06:06:40;2.30;99.90
60039;DHT22;45916;52.734;6.544;2023-03-03T06:09:06;2.30;99.90
60039;DHT22;45916;52.734;6.544;2023-03-03T06:11:31;2.40;99.90
60039;DHT22;45916;52.734;6.544;2023-03-03T06:13:57;2.30;99.90
60039;DHT22;45916;52.734;6.544;2023-03-03T06:16:23;2.40;99.90
60039;DHT22;45916;52.734;6.544;2023-03-03T06:18:49;2.30;99.90
60039;DHT22;45916;52.734;6.544;2023-03-03T06:21:14;2.40;99.90
60039;DHT22;45916;52.734;6.544;2023-03-03T06:23:40;2.40;99.90
60039;DHT22;45916;52.734;6.544;2023-03-03T06:26:06;2.40;99.90
60039;DHT22;45916;52.734;6.544;2023-03-03T06:28:32;2.40;99.90
60039;DHT22;45916;52.734;6.544;2023-03-03T06:30:57;2.40;99.90
60039;DHT22;45916;52.734;6.544;2023-03-03T06:33:23;2.40;99.90
60039;DHT22;45916;52.734;6.544;2023-03-03T06:35:53;2.40;99.90
60039;DHT22;45916;52.734;6.544;2023-03-03T06:38:19;2.40;99.90
60039;DHT22;45916;52.734;6.544;2023-03-03T06:40:46;2.40;99.90
60039;DHT22;45916;52.734;6.544;2023-03-03T06:43:12;2.50;99.90
60039;DHT22;45916;52.734;6.544;2023-03-03T06:45:38;2.40;99.90
60039;DHT22;45916;52.734;6.544;2023-03-03T06:48:04;2.50;99.90
60039;DHT22;45916;52.734;6.544;2023-03-03T06:50:30;2.50;99.90
60039;DHT22;45916;52.734;6.544;2023-03-03T06:53:19;2.60;99.90
60039;DHT22;45916;52.734;6.544;2023-03-03T06:55:45;2.60;99.90
60039;DHT22;45916;52.734;6.544;2023-03-03T06:58:16;2.70;99.90
60039;DHT22;45916;52.734;6.544;2023-03-03T07:00:44;2.70;99.90
60039;DHT22;45916;52.734;6.544;2023-03-03T07:03:18;2.80;99.90
60039;DHT22;45916;52.734;6.544;2023-03-03T07:05:46;2.80;99.90
60039;DHT22;45916;52.734;6.544;2023-03-03T07:08:20;2.90;99.90
60039;DHT22;45916;52.734;6.544;2023-03-03T07:10:48;2.90;99.90
60039;DHT22;45916;52.734;6.544;2023-03-03T07:15:47;3.00;99.90
60039;DHT22;45916;52.734;6.544;2023-03-03T07:20:55;3.10;99.90
60039;DHT22;45916;52.734;6.544;2023-03-03T07:23:25;3.10;99.90
60039;DHT22;45916;52.734;6.544;2023-03-03T07:25:51;3.20;99.90
60039;DHT22;45916;52.734;6.544;2023-03-03T07:28:23;3.30;99.90
60039;DHT22;45916;52.734;6.544;2023-03-03T07:30:51;3.30;99.90
60039;DHT22;45916;52.734;6.544;2023-03-03T07:33:34;3.30;99.90
60039;DHT22;45916;52.734;6.544;2023-03-03T07:36:03;3.40;99.90
60039;DHT22;45916;52.734;6.544;2023-03-03T07:38:38;3.50;99.90
60039;DHT22;45916;52.734;6.544;2023-03-03T07:41:17;3.50;99.90
60039;DHT22;45916;52.734;6.544;2023-03-03T07:48:47;3.70;99.90
60039;DHT22;45916;52.734;6.544;2023-03-03T07:51:26;3.70;99.90
60039;DHT22;45916;52.734;6.544;2023-03-03T07:56:40;3.90;99.90
60039;DHT22;45916;52.734;6.544;2023-03-03T07:59:20;3.90;99.90
60039;DHT22;45916;52.734;6.544;2023-03-03T08:01:51;4.10;99.90
60039;DHT22;45916;52.734;6.544;2023-03-03T08:06:46;4.20;99.90
60039;DHT22;45916;52.734;6.544;2023-03-03T08:11:50;4.40;99.90
60039;DHT22;45916;52.734;6.544;2023-03-03T08:14:25;4.60;99.90
60039;DHT22;45916;52.734;6.544;2023-03-03T08:16:51;4.60;99.90
60039;DHT22;45916;52.734;6.544;2023-03-03T08:19:17;4.80;99.90
60039;DHT22;45916;52.734;6.544;2023-03-03T08:21:43;4.80;99.90
60039;DHT22;45916;52.734;6.544;2023-03-03T08:24:08;5.00;99.90
60039;DHT22;45916;52.734;6.544;2023-03-03T08:26:34;5.00;99.90
60039;DHT22;45916;52.734;6.544;2023-03-03T08:29:00;5.10;99.90
60039;DHT22;45916;52.734;6.544;2023-03-03T08:31:26;5.20;99.90
60039;DHT22;45916;52.734;6.544;2023-03-03T08:33:52;5.20;99.90
60039;DHT22;45916;52.734;6.544;2023-03-03T08:36:18;5.30;99.90
60039;DHT22;45916;52.734;6.544;2023-03-03T08:38:44;5.40;99.90
60039;DHT22;45916;52.734;6.544;2023-03-03T08:41:10;5.40;99.90
60039;DHT22;45916;52.734;6.544;2023-03-03T08:43:38;5.50;99.90
60039;DHT22;45916;52.734;6.544;2023-03-03T08:46:06;5.60;99.90
60039;DHT22;45916;52.734;6.544;2023-03-03T08:48:32;5.80;99.90
60039;DHT22;45916;52.734;6.544;2023-03-03T08:50:58;6.00;99.90
60039;DHT22;45916;52.734;6.544;2023-03-03T08:53:24;6.10;99.90
60039;DHT22;45916;52.734;6.544;2023-03-03T08:55:50;6.20;99.90
60039;DHT22;45916;52.734;6.544;2023-03-03T08:58:17;6.40;99.90
60039;DHT22;45916;52.734;6.544;2023-03-03T09:00:44;7.20;99.90
60039;DHT22;45916;52.734;6.544;2023-03-03T09:03:10;8.00;99.90
60039;DHT22;45916;52.734;6.544;2023-03-03T09:05:37;8.60;99.90
60039;DHT22;45916;52.734;6.544;2023-03-03T09:08:04;8.80;99.90
60039;DHT22;45916;52.734;6.544;2023-03-03T09:10:30;9.00;99.90
60039;DHT22;45916;52.734;6.544;2023-03-03T09:12:59;9.00;99.90
60039;DHT22;45916;52.734;6.544;2023-03-03T09:15:35;9.10;99.90
60039;DHT22;45916;52.734;6.544;2023-03-03T09:21:01;9.30;99.90
60039;DHT22;45916;52.734;6.544;2023-03-03T09:26:20;9.60;99.90
60039;DHT22;45916;52.734;6.544;2023-03-03T09:28:47;9.50;99.90
60039;DHT22;45916;52.734;6.544;2023-03-03T09:31:38;9.40;99.90
60039;DHT22;45916;52.734;6.544;2023-03-03T09:36:59;9.10;99.90
60039;DHT22;45916;52.734;6.544;2023-03-03T09:39:26;9.40;99.90
60039;DHT22;45916;52.734;6.544;2023-03-03T09:44:49;10.40;99.90
60039;DHT22;45916;52.734;6.544;2023-03-03T09:47:46;10.80;99.90
60039;DHT22;45916;52.734;6.544;2023-03-03T09:56:06;10.00;99.90
60039;DHT22;45916;52.734;6.544;2023-03-03T10:15:14;8.30;99.90
60039;DHT22;45916;52.734;6.544;2023-03-03T10:17:56;8.20;99.90
60039;DHT22;45916;52.734;6.544;2023-03-03T10:31:22;8.30;99.90
60039;DHT22;45916;52.734;6.544;2023-03-03T10:39:09;8.60;99.90
60039;DHT22;45916;52.734;6.544;2023-03-03T10:50:33;8.80;99.90
60039;DHT22;45916;52.734;6.544;2023-03-03T10:58:48;9.10;99.90
60039;DHT22;45916;52.734;6.544;2023-03-03T11:01:25;9.20;99.90
60039;DHT22;45916;52.734;6.544;2023-03-03T11:04:06;9.30;99.90
60039;DHT22;45916;52.734;6.544;2023-03-03T11:06:57;9.40;99.90
60039;DHT22;45916;52.734;6.544;2023-03-03T11:20:55;9.80;99.90
60039;DHT22;45916;52.734;6.544;2023-03-03T11:23:51;9.80;99.90
60039;DHT22;45916;52.734;6.544;2023-03-03T11:37:24;9.80;99.90
60039;DHT22;45916;52.734;6.544;2023-03-03T11:39:53;9.80;99.90
60039;DHT22;45916;52.734;6.544;2023-03-03T11:42:25;9.90;99.90
60039;DHT22;45916;52.734;6.544;2023-03-03T11:45:02;10.00;99.90
60039;DHT22;45916;52.734;6.544;2023-03-03T11:48:05;10.20;99.90
60039;DHT22;45916;52.734;6.544;2023-03-03T11:53:31;10.40;99.90
60039;DHT22;45916;52.734;6.544;2023-03-03T12:01:56;10.70;99.90
60039;DHT22;45916;52.734;6.544;2023-03-03T12:04:34;10.90;99.90
60039;DHT22;45916;52.734;6.544;2023-03-03T12:12:54;11.40;99.90
60039;DHT22;45916;52.734;6.544;2023-03-03T12:25:41;11.90;99.90
60039;DHT22;45916;52.734;6.544;2023-03-03T12:28:18;12.10;99.90
60039;DHT22;45916;52.734;6.544;2023-03-03T12:33:54;12.40;99.90
60039;DHT22;45916;52.734;6.544;2023-03-03T12:36:49;12.30;99.90
60039;DHT22;45916;52.734;6.544;2023-03-03T12:42:23;12.10;99.90
60039;DHT22;45916;52.734;6.544;2023-03-03T12:45:27;12.10;99.90
60039;DHT22;45916;52.734;6.544;2023-03-03T12:47:50;12.00;99.90
60039;DHT22;45916;52.734;6.544;2023-03-03T12:55:34;11.70;99.90
60039;DHT22;45916;52.734;6.544;2023-03-03T13:01:20;11.60;99.90
60039;DHT22;45916;52.734;6.544;2023-03-03T13:09:08;10.80;99.90
60039;DHT22;45916;52.734;6.544;2023-03-03T13:14:17;10.80;99.90
60039;DHT22;45916;52.734;6.544;2023-03-03T13:19:42;10.80;99.90
60039;DHT22;45916;52.734;6.544;2023-03-03T13:22:43;10.80;99.90
60039;DHT22;45916;52.734;6.544;2023-03-03T13:28:41;10.60;99.90
60039;DHT22;45916;52.734;6.544;2023-03-03T13:31:16;10.60;99.90
60039;DHT22;45916;52.734;6.544;2023-03-03T13:33:56;10.60;99.90
60039;DHT22;45916;52.734;6.544;2023-03-03T13:36:31;10.60;99.90
60039;DHT22;45916;52.734;6.544;2023-03-03T13:39:04;10.70;99.90
60039;DHT22;45916;52.734;6.544;2023-03-03T13:41:43;10.80;99.90
60039;DHT22;45916;52.734;6.544;2023-03-03T13:44:23;10.90;99.90
60039;DHT22;45916;52.734;6.544;2023-03-03T13:52:31;10.90;99.90
60039;DHT22;45916;52.734;6.544;2023-03-03T13:55:11;10.80;99.90
60039;DHT22;45916;52.734;6.544;2023-03-03T14:00:33;10.80;99.90
60039;DHT22;45916;52.734;6.544;2023-03-03T14:03:18;10.70;99.90
60039;DHT22;45916;52.734;6.544;2023-03-03T14:05:55;10.70;99.90
60039;DHT22;45916;52.734;6.544;2023-03-03T14:11:13;10.50;99.90
60039;DHT22;45916;52.734;6.544;2023-03-03T14:19:31;9.90;99.90
60039;DHT22;45916;52.734;6.544;2023-03-03T14:22:21;9.70;99.90
60039;DHT22;45916;52.734;6.544;2023-03-03T14:33:06;8.90;99.90
60039;DHT22;45916;52.734;6.544;2023-03-03T14:35:59;8.70;99.90
60039;DHT22;45916;52.734;6.544;2023-03-03T14:46:29;8.40;99.90
60039;DHT22;45916;52.734;6.544;2023-03-03T14:48:57;8.50;99.90
60039;DHT22;45916;52.734;6.544;2023-03-03T14:51:48;8.60;99.90
60039;DHT22;45916;52.734;6.544;2023-03-03T14:54:25;8.70;99.90
60039;DHT22;45916;52.734;6.544;2023-03-03T14:59:30;8.70;99.90
60039;DHT22;45916;52.734;6.544;2023-03-03T15:02:26;8.60;99.90
60039;DHT22;45916;52.734;6.544;2023-03-03T15:10:39;8.40;99.90
60039;DHT22;45916;52.734;6.544;2023-03-03T15:18:29;8.00;99.90
60039;DHT22;45916;52.734;6.544;2023-03-03T15:39:57;8.00;99.90
60039;DHT22;45916;52.734;6.544;2023-03-03T15:51:13;8.40;99.90
60039;DHT22;45916;52.734;6.544;2023-03-03T15:56:47;8.60;99.90
60039;DHT22;45916;52.734;6.544;2023-03-03T16:04:23;8.40;99.90
60039;DHT22;45916;52.734;6.544;2023-03-03T16:10:02;8.30;99.90
60039;DHT22;45916;52.734;6.544;2023-03-03T16:17:44;8.10;99.90
60039;DHT22;45916;52.734;6.544;2023-03-03T16:34:35;7.60;99.90
60039;DHT22;45916;52.734;6.544;2023-03-03T16:37:17;7.50;99.90
60039;DHT22;45916;52.734;6.544;2023-03-03T16:40:12;7.40;99.90
60039;DHT22;45916;52.734;6.544;2023-03-03T16:42:43;7.40;99.90
60039;DHT22;45916;52.734;6.544;2023-03-03T16:45:19;7.30;99.90
60039;DHT22;45916;52.734;6.544;2023-03-03T16:55:41;7.00;99.90
60039;DHT22;45916;52.734;6.544;2023-03-03T16:58:30;6.90;99.90
60039;DHT22;45916;52.734;6.544;2023-03-03T17:01:14;6.80;99.90
60039;DHT22;45916;52.734;6.544;2023-03-03T17:06:18;6.70;99.90
60039;DHT22;45916;52.734;6.544;2023-03-03T17:14:07;6.70;99.90
60039;DHT22;45916;52.734;6.544;2023-03-03T17:25:32;6.50;99.90
60039;DHT22;45916;52.734;6.544;2023-03-03T17:28:21;6.50;99.90
60039;DHT22;45916;52.734;6.544;2023-03-03T17:34:17;6.50;99.90
60039;DHT22;45916;52.734;6.544;2023-03-03T17:45:08;6.40;99.90
60039;DHT22;45916;52.734;6.544;2023-03-03T17:56:27;6.50;99.90
60039;DHT22;45916;52.734;6.544;2023-03-03T18:04:54;6.30;99.90
60039;DHT22;45916;52.734;6.544;2023-03-03T18:26:51;6.20;99.90
60039;DHT22;45916;52.734;6.544;2023-03-03T18:29:27;6.30;99.90
60039;DHT22;45916;52.734;6.544;2023-03-03T18:50:36;6.30;99.90
60039;DHT22;45916;52.734;6.544;2023-03-03T18:53:27;6.30;99.90
60039;DHT22;45916;52.734;6.544;2023-03-03T18:55:58;6.30;99.90
60039;DHT22;45916;52.734;6.544;2023-03-03T18:58:41;6.30;99.90
60039;DHT22;45916;52.734;6.544;2023-03-03T19:09:03;6.20;99.90
60039;DHT22;45916;52.734;6.544;2023-03-03T19:11:49;6.20;99.90
60039;DHT22;45916;52.734;6.544;2023-03-03T19:20:10;6.20;99.90
60039;DHT22;45916;52.734;6.544;2023-03-03T19:23:04;6.20;99.90
60039;DHT22;45916;52.734;6.544;2023-03-03T19:25:30;6.20;99.90
60039;DHT22;45916;52.734;6.544;2023-03-03T19:30:55;6.10;99.90
60039;DHT22;45916;52.734;6.544;2023-03-03T19:36:16;6.10;99.90
60039;DHT22;45916;52.734;6.544;2023-03-03T19:39:04;6.10;99.90
60039;DHT22;45916;52.734;6.544;2023-03-03T19:44:40;6.10;99.90
60039;DHT22;45916;52.734;6.544;2023-03-03T19:52:41;6.00;99.90
60039;DHT22;45916;52.734;6.544;2023-03-03T19:55:25;5.90;99.90
60039;DHT22;45916;52.734;6.544;2023-03-03T19:58:12;5.90;99.90
60039;DHT22;45916;52.734;6.544;2023-03-03T20:03:47;5.90;99.90
60039;DHT22;45916;52.734;6.544;2023-03-03T20:12:11;5.90;99.90
60039;DHT22;45916;52.734;6.544;2023-03-03T20:14:46;5.90;99.90
60039;DHT22;45916;52.734;6.544;2023-03-03T20:20:08;5.90;99.90
60039;DHT22;45916;52.734;6.544;2023-03-03T20:36:34;6.10;99.90
60039;DHT22;45916;52.734;6.544;2023-03-03T20:39:10;6.00;99.90
60039;DHT22;45916;52.734;6.544;2023-03-03T20:53:36;6.10;99.90
60039;DHT22;45916;52.734;6.544;2023-03-03T21:01:35;6.00;99.90
60039;DHT22;45916;52.734;6.544;2023-03-03T21:04:18;6.00;99.90
60039;DHT22;45916;52.734;6.544;2023-03-03T21:06:44;6.00;99.90
60039;DHT22;45916;52.734;6.544;2023-03-03T21:09:37;6.00;99.90
60039;DHT22;45916;52.734;6.544;2023-03-03T21:15:28;6.10;99.90
60039;DHT22;45916;52.734;6.544;2023-03-03T21:17:55;6.00;99.90
60039;DHT22;45916;52.734;6.544;2023-03-03T21:22:49;6.00;99.90
60039;DHT22;45916;52.734;6.544;2023-03-03T21:25:45;6.00;99.90
60039;DHT22;45916;52.734;6.544;2023-03-03T21:33:51;5.90;99.90
60039;DHT22;45916;52.734;6.544;2023-03-03T21:39:23;6.00;99.90
60039;DHT22;45916;52.734;6.544;2023-03-03T21:47:02;6.00;99.90
60039;DHT22;45916;52.734;6.544;2023-03-03T21:49:28;6.00;99.90
60039;DHT22;45916;52.734;6.544;2023-03-03T21:51:54;6.10;99.90
60039;DHT22;45916;52.734;6.544;2023-03-03T21:54:21;6.10;99.90
60039;DHT22;45916;52.734;6.544;2023-03-03T21:56:47;6.10;99.90
60039;DHT22;45916;52.734;6.544;2023-03-03T21:59:15;6.00;99.90
60039;DHT22;45916;52.734;6.544;2023-03-03T22:01:41;6.10;99.90
60039;DHT22;45916;52.734;6.544;2023-03-03T22:04:06;6.10;99.90
60039;DHT22;45916;52.734;6.544;2023-03-03T22:06:32;6.10;99.90
60039;DHT22;45916;52.734;6.544;2023-03-03T22:08:57;6.10;99.90
60039;DHT22;45916;52.734;6.544;2023-03-03T22:11:23;6.10;99.90
60039;DHT22;45916;52.734;6.544;2023-03-03T22:13:49;6.10;99.90
60039;DHT22;45916;52.734;6.544;2023-03-03T22:16:15;6.20;99.90
60039;DHT22;45916;52.734;6.544;2023-03-03T22:18:40;6.20;99.90
60039;DHT22;45916;52.734;6.544;2023-03-03T22:21:06;6.10;99.90
60039;DHT22;45916;52.734;6.544;2023-03-03T22:23:32;6.10;99.90
60039;DHT22;45916;52.734;6.544;2023-03-03T22:25:57;6.10;99.90
60039;DHT22;45916;52.734;6.544;2023-03-03T22:28:24;6.20;99.90
60039;DHT22;45916;52.734;6.544;2023-03-03T22:30:49;6.10;99.90
60039;DHT22;45916;52.734;6.544;2023-03-03T22:33:15;6.20;99.90
60039;DHT22;45916;52.734;6.544;2023-03-03T22:35:41;6.10;99.90
60039;DHT22;45916;52.734;6.544;2023-03-03T22:38:06;6.10;99.90
60039;DHT22;45916;52.734;6.544;2023-03-03T22:40:32;6.10;99.90
60039;DHT22;45916;52.734;6.544;2023-03-03T22:42:58;6.00;99.90
60039;DHT22;45916;52.734;6.544;2023-03-03T22:45:25;6.00;99.90
60039;DHT22;45916;52.734;6.544;2023-03-03T22:47:50;6.00;99.90
60039;DHT22;45916;52.734;6.544;2023-03-03T22:50:16;6.00;99.90
60039;DHT22;45916;52.734;6.544;2023-03-03T22:52:43;6.00;99.90
60039;DHT22;45916;52.734;6.544;2023-03-03T22:55:09;6.00;99.90
60039;DHT22;45916;52.734;6.544;2023-03-03T22:57:35;6.00;99.90
60039;DHT22;45916;52.734;6.544;2023-03-03T23:00:01;5.90;99.90
60039;DHT22;45916;52.734;6.544;2023-03-03T23:02:28;5.90;99.90
60039;DHT22;45916;52.734;6.544;2023-03-03T23:04:54;5.90;99.90
60039;DHT22;45916;52.734;6.544;2023-03-03T23:07:26;6.00;99.90
60039;DHT22;45916;52.734;6.544;2023-03-03T23:09:52;6.00;99.90
60039;DHT22;45916;52.734;6.544;2023-03-03T23:12:17;6.00;99.90
60039;DHT22;45916;52.734;6.544;2023-03-03T23:14:43;6.00;99.90
60039;DHT22;45916;52.734;6.544;2023-03-03T23:17:09;6.00;99.90
60039;DHT22;45916;52.734;6.544;2023-03-03T23:19:34;6.00;99.90
60039;DHT22;45916;52.734;6.544;2023-03-03T23:22:00;6.10;99.90
60039;DHT22;45916;52.734;6.544;2023-03-03T23:24:26;6.10;99.90
60039;DHT22;45916;52.734;6.544;2023-03-03T23:26:51;6.10;99.90
60039;DHT22;45916;52.734;6.544;2023-03-03T23:29:22;6.20;99.90
60039;DHT22;45916;52.734;6.544;2023-03-03T23:31:47;6.10;99.90
60039;DHT22;45916;52.734;6.544;2023-03-03T23:34:13;6.30;99.90
60039;DHT22;45916;52.734;6.544;2023-03-03T23:36:39;6.30;99.90
60039;DHT22;45916;52.734;6.544;2023-03-03T23:39:05;6.20;99.90
60039;DHT22;45916;52.734;6.544;2023-03-03T23:41:30;6.20;99.90